Stillwater, OK (74075)

17:31 CDT le 30 août 2015 (GMT -0500)
Stillwater, East Side | | Change Station
CLOSE
Current Station
Stations météorologiques personnelles
Location: Stillwater, OK
Altitude: 935 ft
Stations météo à proximité

Alt. 935 ft 36.12 °N, 97.04 °W | Updated 6 seconds ago

Mostly Cloudy
Nuageux
87.3 ° F
Paraît 94 ° F
N
0.0
Vent Variable Vent de ESE
Gusts 5.0 mph

Aujourd'hui
Haut(e) -- | Bas -- ° F
--% Risque de précip.
Hier
Haut(e) -- | Bas -- ° F
Precip. -- pouce
6:58 AM 7:59 PM
Pleine lune, 98% visible
Pression 29.91 pouce
Visibilité 10.0 Miles terrestres
Nuages Peu 4700 ft
Nuageux 5500 ft
indice de chaleur 94 ° F
Point de rosée 72 ° F
Humidité 60%
Précipitations 0.00 pouce
Profondeur de la couche neigeuse Non disponible.
UV 1.9 sur 12
Pollen 9.30 sur 12
Qualité de l'air Non disponible.
Flu Activity Non disponible.
METAR KSWO 302153Z 00000KT 10SM FEW047 BKN055 30/20 A2994 RMK AO2 SLP126 T03000200
Pression 29.91 pouce
Visibilité 10.0 Miles terrestres
Nuages Peu 4700 ft
Nuageux 5500 ft
indice de chaleur 94 ° F
Point de rosée 72 ° F
Humidité 60%
Précipitations 0.00 pouce
Profondeur de la couche neigeuse Non disponible.
UV 1.9 sur 12
Pollen 9.30 sur 12
Qualité de l'air Non disponible.
Flu Activity Non disponible.
METAR KSWO 302153Z 00000KT 10SM FEW047 BKN055 30/20 A2994 RMK AO2 SLP126 T03000200

10-Day Weather Forecast

×

Almanac

Astronomie

Aug. 30, 2015 Lever Coucher
Temps réel
Crépuscule civil
Crépuscule nautique
Crépuscule astronomique
Lune
Durée de lumière visible
Longueur du jour
Tomorrow will be .
, % of the Moon is Illuminated

Extrêmes aujourd'hui

State Highs State Lows

Community

WunderPhotos

Upload Photos

1,851,074 Photos téléchargées !

WunderBlogs® & News

Nearby

Qualité de l'air

  Qualité de l'air Indice de la qualité de l'air Polluant
Not available.

Épaisseur de neige

Station Depth Altitude

Activité sismique

Ville Distance Mag. Time & Date
Minimum magnitude displayed is 2.5.

Températures des eaux côtières

Lieu Température

Stations

Stations météo à proximité

Emplacement de la station Température Refroidissement éolien Point de rosée Humidité Vent Precip. Alt. Mise à jour Type